Time;durP1;ratioP1;P1;durP2;ratioP2;P2;SDS_P1;SDS_P2;PMS_P1;PMS_P2;Temp;Humidity;BMP_temperature;BMP_pressure;BME280_temperature;BME280_humidity;BME280_pressure;Samples;Min_cycle;Max_cycle;Signal;HPM_P1;HPM_P2
2021/08/09 00:00:17;;;;;;;5.03;3.33;;;;;;;;;;2079137;28;20551;-55
2021/08/09 00:01:17;;;;;;;3.78;2.85;;;;;;;;;;2081213;28;20187;-53
2021/08/09 00:02:17;;;;;;;3.22;3.03;;;;;;;;;;2077822;28;20314;-56
2021/08/09 00:03:17;;;;;;;6.65;3.20;;;;;;;;;;2073575;28;20177;-52
2021/08/09 00:04:18;;;;;;;4.95;3.30;;;;;;;;;;2073456;28;20169;-56
2021/08/09 00:05:18;;;;;;;5.55;3.15;;;;;;;;;;2078246;28;20183;-53
2021/08/09 00:06:21;;;;;;;3.20;2.90;;;;;;;;;;2072069;28;20201;-54
2021/08/09 00:07:22;;;;;;;3.17;2.85;;;;;;;;;;2080422;28;20677;-54
2021/08/09 00:08:22;;;;;;;3.05;2.60;;;;;;;;;;2105969;23;20172;-52
2021/08/09 00:09:22;;;;;;;8.02;3.47;;;;;;;;;;2075955;28;20267;-52
2021/08/09 00:10:22;;;;;;;4.25;3.08;;;;;;;;;;2082174;28;20203;-50
2021/08/09 00:11:23;;;;;;;3.50;3.20;;;;;;;;;;2077309;28;20161;-49
2021/08/09 00:12:23;;;;;;;3.63;2.90;;;;;;;;;;2082620;28;20578;-49
2021/08/09 00:13:23;;;;;;;5.30;3.10;;;;;;;;;;2081418;28;20180;-50
2021/08/09 00:14:23;;;;;;;3.60;2.60;;;;;;;;;;2080792;28;20574;-53
2021/08/09 00:15:24;;;;;;;5.10;3.08;;;;;;;;;;2080575;28;20256;-51
2021/08/09 00:16:24;;;;;;;3.53;2.85;;;;;;;;;;2085903;28;20180;-52
2021/08/09 00:17:25;;;;;;;3.78;2.90;;;;;;;;;;2087390;28;20217;-48
2021/08/09 00:18:25;;;;;;;2.83;2.63;;;;;;;;;;2081830;28;20172;-49
2021/08/09 00:19:26;;;;;;;4.20;2.97;;;;;;;;;;2087409;28;20654;-49
2021/08/09 00:20:26;;;;;;;4.40;3.22;;;;;;;;;;2086940;28;20684;-49
2021/08/09 00:21:27;;;;;;;2.83;2.60;;;;;;;;;;2078613;28;20215;-49
2021/08/09 00:22:27;;;;;;;4.43;2.78;;;;;;;;;;2080210;28;20160;-50
2021/08/09 00:23:28;;;;;;;8.10;3.25;;;;;;;;;;2090358;28;20167;-48
2021/08/09 00:24:28;;;;;;;3.70;3.17;;;;;;;;;;2080885;28;20656;-49
2021/08/09 00:25:28;;;;;;;7.65;3.80;;;;;;;;;;2080361;28;20263;-50
2021/08/09 00:26:29;;;;;;;3.38;3.08;;;;;;;;;;2080689;28;20300;-50
2021/08/09 00:27:29;;;;;;;4.18;3.38;;;;;;;;;;2073446;28;20195;-50
2021/08/09 00:28:30;;;;;;;4.18;3.42;;;;;;;;;;2068318;28;20213;-51
2021/08/09 00:29:30;;;;;;;4.53;2.92;;;;;;;;;;2069635;28;20169;-50
2021/08/09 00:30:30;;;;;;;6.45;2.97;;;;;;;;;;2072704;28;20169;-49
2021/08/09 00:31:31;;;;;;;3.78;2.80;;;;;;;;;;2074151;28;20173;-48
2021/08/09 00:32:31;;;;;;;4.10;3.03;;;;;;;;;;2077606;28;20722;-51
2021/08/09 00:33:31;;;;;;;6.03;3.30;;;;;;;;;;2071574;28;20176;-51
2021/08/09 00:34:33;;;;;;;3.97;3.17;;;;;;;;;;2078469;28;20598;-49
2021/08/09 00:35:33;;;;;;;5.78;3.50;;;;;;;;;;2073421;28;20157;-52
2021/08/09 00:36:34;;;;;;;4.50;3.70;;;;;;;;;;2070420;28;20601;-49
2021/08/09 00:37:34;;;;;;;4.68;3.30;;;;;;;;;;2068047;28;20169;-52
2021/08/09 00:38:35;;;;;;;4.20;3.80;;;;;;;;;;2079973;28;20164;-51
2021/08/09 00:39:35;;;;;;;4.22;3.83;;;;;;;;;;2073696;28;20173;-50
2021/08/09 00:40:35;;;;;;;4.18;3.13;;;;;;;;;;2078287;28;20704;-50
2021/08/09 00:41:36;;;;;;;3.55;3.25;;;;;;;;;;2077586;28;20168;-53
2021/08/09 00:42:38;;;;;;;3.50;3.03;;;;;;;;;;2071346;28;20193;-50
2021/08/09 00:43:39;;;;;;;6.68;3.53;;;;;;;;;;2064685;28;20705;-49
2021/08/09 00:44:39;;;;;;;3.85;3.22;;;;;;;;;;2068369;28;20203;-49
2021/08/09 00:45:40;;;;;;;3.33;2.53;;;;;;;;;;2079686;28;20172;-51
2021/08/09 00:46:41;;;;;;;4.43;3.40;;;;;;;;;;2071948;28;20894;-50
2021/08/09 00:47:41;;;;;;;3.13;2.80;;;;;;;;;;2078741;28;20207;-49
2021/08/09 00:48:43;;;;;;;4.15;3.22;;;;;;;;;;2072174;28;20687;-52
2021/08/09 00:49:44;;;;;;;6.82;3.40;;;;;;;;;;2063765;28;20174;-53
2021/08/09 00:50:45;;;;;;;3.60;3.30;;;;;;;;;;2072674;28;20165;-50
2021/08/09 00:51:47;;;;;;;3.00;2.80;;;;;;;;;;2079711;28;20657;-50
2021/08/09 00:52:47;;;;;;;3.55;2.85;;;;;;;;;;2071703;28;20169;-50
2021/08/09 00:53:48;;;;;;;5.80;3.40;;;;;;;;;;2070207;28;20606;-50
2021/08/09 00:54:49;;;;;;;8.95;3.15;;;;;;;;;;2071840;28;20181;-49
2021/08/09 00:55:51;;;;;;;3.38;3.10;;;;;;;;;;2079120;28;20177;-49
2021/08/09 00:56:53;;;;;;;5.30;3.28;;;;;;;;;;2063305;28;20182;-49
2021/08/09 00:57:53;;;;;;;3.60;3.13;;;;;;;;;;2058635;28;20639;-49
2021/08/09 00:59:00;;;;;;;4.18;3.10;;;;;;;;;;2066246;28;20189;-50
2021/08/09 01:00:01;;;;;;;5.10;3.30;;;;;;;;;;2080947;28;20611;-50
2021/08/09 01:01:03;;;;;;;3.50;3.20;;;;;;;;;;2070380;28;20197;-52
2021/08/09 01:02:04;;;;;;;3.40;3.03;;;;;;;;;;2078247;28;20658;-49
2021/08/09 01:03:05;;;;;;;5.30;3.08;;;;;;;;;;2066172;28;20197;-50
2021/08/09 01:04:06;;;;;;;3.58;2.88;;;;;;;;;;2066143;28;20204;-51
2021/08/09 01:05:07;;;;;;;6.55;3.40;;;;;;;;;;2075730;28;20208;-50
2021/08/09 01:06:07;;;;;;;6.80;2.90;;;;;;;;;;2086331;28;20175;-54
2021/08/09 01:07:09;;;;;;;5.78;3.60;;;;;;;;;;2074332;28;20192;-52
2021/08/09 01:08:29;;;;;;;3.65;3.20;;;;;;;;;;2078496;28;20174;-54
2021/08/09 01:09:38;;;;;;;4.25;3.20;;;;;;;;;;2075664;28;20187;-54
2021/08/09 01:10:48;;;;;;;7.28;3.22;;;;;;;;;;2065063;28;20174;-50
2021/08/09 01:12:10;;;;;;;3.78;3.00;;;;;;;;;;2067701;28;20165;-51
2021/08/09 01:13:19;;;;;;;3.85;3.38;;;;;;;;;;2070710;28;20180;-53
2021/08/09 01:14:34;;;;;;;4.10;3.15;;;;;;;;;;2068270;28;20189;-49
2021/08/09 01:15:38;;;;;;;6.13;3.60;;;;;;;;;;2074492;28;20170;-49
2021/08/09 01:16:40;;;;;;;6.15;3.45;;;;;;;;;;2069178;28;20179;-49
2021/08/09 01:17:43;;;;;;;6.43;3.88;;;;;;;;;;2069808;28;20185;-53
2021/08/09 01:18:45;;;;;;;4.05;3.70;;;;;;;;;;2069758;28;20208;-50
2021/08/09 01:20:03;;;;;;;3.72;3.42;;;;;;;;;;2064350;28;20838;-51
2021/08/09 01:21:07;;;;;;;4.03;3.63;;;;;;;;;;2066726;28;20164;-49
2021/08/09 01:22:22;;;;;;;5.28;3.53;;;;;;;;;;2064232;28;20627;-49
2021/08/09 01:23:35;;;;;;;6.22;3.40;;;;;;;;;;2072277;28;20259;-50
2021/08/09 01:24:55;;;;;;;8.80;3.65;;;;;;;;;;2065870;28;20201;-50
2021/08/09 01:25:58;;;;;;;4.40;3.30;;;;;;;;;;2075127;28;20248;-49
2021/08/09 01:27:05;;;;;;;5.03;3.10;;;;;;;;;;2073174;28;20180;-51
2021/08/09 01:28:06;;;;;;;4.40;3.38;;;;;;;;;;2068129;28;20170;-51
2021/08/09 01:29:10;;;;;;;4.43;3.30;;;;;;;;;;2072393;28;20208;-51
2021/08/09 01:30:11;;;;;;;4.05;3.65;;;;;;;;;;2080440;28;20176;-52
2021/08/09 01:31:15;;;;;;;4.55;3.25;;;;;;;;;;2080412;28;20642;-49
2021/08/09 01:32:17;;;;;;;4.63;3.47;;;;;;;;;;2080032;28;20645;-50
2021/08/09 01:33:19;;;;;;;4.38;3.58;;;;;;;;;;2080541;28;20263;-53
2021/08/09 01:34:20;;;;;;;4.10;2.90;;;;;;;;;;2072342;28;20208;-50
2021/08/09 01:35:24;;;;;;;4.60;3.30;;;;;;;;;;2065384;28;20201;-51
2021/08/09 01:36:26;;;;;;;4.55;3.30;;;;;;;;;;2064450;28;20169;-50
2021/08/09 01:37:28;;;;;;;5.65;3.08;;;;;;;;;;2064360;28;20178;-50
2021/08/09 01:38:29;;;;;;;3.67;3.22;;;;;;;;;;2072447;28;20169;-51
2021/08/09 01:39:29;;;;;;;4.03;3.42;;;;;;;;;;2072383;28;20676;-49
2021/08/09 01:40:31;;;;;;;3.65;3.33;;;;;;;;;;2077829;28;20173;-50
2021/08/09 01:41:32;;;;;;;3.88;3.28;;;;;;;;;;2063511;28;20177;-49
2021/08/09 01:42:34;;;;;;;5.85;3.85;;;;;;;;;;2076621;28;20174;-49
2021/08/09 01:43:35;;;;;;;3.63;3.33;;;;;;;;;;2070810;28;20176;-52
2021/08/09 01:44:35;;;;;;;3.67;3.33;;;;;;;;;;2064674;28;20257;-53
2021/08/09 01:45:37;;;;;;;3.80;3.40;;;;;;;;;;2060909;28;20174;-53
2021/08/09 01:46:38;;;;;;;4.03;3.58;;;;;;;;;;2061383;28;20201;-55
2021/08/09 01:47:38;;;;;;;4.18;3.70;;;;;;;;;;2076013;28;20204;-53
2021/08/09 01:48:40;;;;;;;5.22;3.17;;;;;;;;;;2074658;28;20566;-50
2021/08/09 01:49:40;;;;;;;3.22;2.95;;;;;;;;;;2076245;28;20178;-49
2021/08/09 01:50:41;;;;;;;3.58;3.10;;;;;;;;;;2079035;28;20725;-51
2021/08/09 01:51:43;;;;;;;4.38;3.42;;;;;;;;;;2075624;28;20171;-50
2021/08/09 01:52:44;;;;;;;4.03;3.25;;;;;;;;;;2071364;28;20184;-50
2021/08/09 01:53:47;;;;;;;4.43;3.17;;;;;;;;;;2062587;28;20241;-50
2021/08/09 01:54:48;;;;;;;3.88;3.47;;;;;;;;;;2075539;28;20273;-50
2021/08/09 01:55:49;;;;;;;5.80;3.80;;;;;;;;;;2079835;28;20199;-51
2021/08/09 01:56:50;;;;;;;3.38;3.08;;;;;;;;;;2072885;28;20643;-53
2021/08/09 01:57:52;;;;;;;3.85;3.38;;;;;;;;;;2058744;28;20189;-52
2021/08/09 01:58:54;;;;;;;4.82;3.25;;;;;;;;;;2065017;28;20749;-54
2021/08/09 01:59:55;;;;;;;3.95;3.63;;;;;;;;;;2066485;28;20165;-51
2021/08/09 02:00:56;;;;;;;4.63;3.65;;;;;;;;;;2070819;28;20188;-51
2021/08/09 02:01:58;;;;;;;3.28;2.97;;;;;;;;;;2072474;28;20580;-53
2021/08/09 02:02:59;;;;;;;4.43;3.35;;;;;;;;;;2080497;28;20228;-53
2021/08/09 02:04:02;;;;;;;6.05;3.60;;;;;;;;;;2075133;28;20181;-52
2021/08/09 02:05:05;;;;;;;5.70;3.53;;;;;;;;;;2062921;28;20205;-50
2021/08/09 02:06:05;;;;;;;3.72;3.17;;;;;;;;;;2063394;28;20178;-50
2021/08/09 02:07:06;;;;;;;4.22;3.75;;;;;;;;;;2065627;28;20180;-49
2021/08/09 02:08:11;;;;;;;6.95;4.05;;;;;;;;;;2067844;28;20256;-50
2021/08/09 02:09:11;;;;;;;3.85;3.42;;;;;;;;;;2077555;28;20588;-51
2021/08/09 02:10:17;;;;;;;6.13;3.50;;;;;;;;;;2075741;28;20572;-49
2021/08/09 02:11:20;;;;;;;4.40;3.58;;;;;;;;;;2071007;28;20285;-50
2021/08/09 02:12:20;;;;;;;3.75;3.45;;;;;;;;;;2072794;28;20276;-50
2021/08/09 02:13:32;;;;;;;5.00;3.55;;;;;;;;;;2081634;28;20173;-54
2021/08/09 02:14:40;;;;;;;4.60;3.40;;;;;;;;;;2078092;28;20260;-50
2021/08/09 02:15:52;;;;;;;4.20;3.80;;;;;;;;;;2072816;28;20176;-50
2021/08/09 02:16:52;;;;;;;5.65;3.50;;;;;;;;;;2065822;28;20171;-49
2021/08/09 02:17:56;;;;;;;3.58;3.28;;;;;;;;;;2067213;28;20268;-50
2021/08/09 02:19:09;;;;;;;5.70;3.47;;;;;;;;;;2081116;28;20203;-50
2021/08/09 02:20:15;;;;;;;5.35;3.72;;;;;;;;;;2067666;28;20177;-52
2021/08/09 02:21:18;;;;;;;5.55;4.00;;;;;;;;;;2072977;28;20165;-53
2021/08/09 02:22:21;;;;;;;4.43;3.53;;;;;;;;;;2076311;28;20168;-49
2021/08/09 02:23:23;;;;;;;4.18;3.10;;;;;;;;;;2072322;28;20176;-53
2021/08/09 02:24:26;;;;;;;3.67;3.38;;;;;;;;;;2070424;28;20552;-51
2021/08/09 02:25:27;;;;;;;4.18;3.83;;;;;;;;;;2072158;28;20172;-50
2021/08/09 02:26:33;;;;;;;6.25;3.65;;;;;;;;;;2078474;28;20697;-52
2021/08/09 02:27:37;;;;;;;4.72;3.50;;;;;;;;;;2068337;28;20184;-50
2021/08/09 02:28:40;;;;;;;6.53;3.60;;;;;;;;;;2077698;28;20195;-50
2021/08/09 02:29:43;;;;;;;4.22;3.28;;;;;;;;;;2080695;28;20629;-50
2021/08/09 02:30:47;;;;;;;4.03;3.58;;;;;;;;;;2071981;28;20696;-53
2021/08/09 02:31:48;;;;;;;5.53;4.18;;;;;;;;;;2073033;28;20685;-51
2021/08/09 02:32:50;;;;;;;4.15;3.75;;;;;;;;;;2079978;28;20180;-50
2021/08/09 02:33:50;;;;;;;5.25;3.60;;;;;;;;;;2077665;28;20246;-51
2021/08/09 02:34:52;;;;;;;5.22;3.63;;;;;;;;;;2079903;28;20172;-51
2021/08/09 02:35:53;;;;;;;4.38;4.07;;;;;;;;;;2065724;28;20272;-50
2021/08/09 02:36:55;;;;;;;6.07;3.75;;;;;;;;;;2059220;28;20644;-50
2021/08/09 02:37:56;;;;;;;5.90;3.88;;;;;;;;;;2069300;28;20165;-52
2021/08/09 02:38:57;;;;;;;4.53;3.55;;;;;;;;;;2072733;28;20193;-50
2021/08/09 02:39:58;;;;;;;3.50;3.20;;;;;;;;;;2074562;28;20263;-49
2021/08/09 02:40:59;;;;;;;7.68;4.20;;;;;;;;;;2078790;28;20715;-51
2021/08/09 02:42:00;;;;;;;5.22;3.80;;;;;;;;;;2065981;28;20182;-51
2021/08/09 02:43:01;;;;;;;3.72;3.42;;;;;;;;;;2073302;28;20179;-50
2021/08/09 02:44:01;;;;;;;4.00;3.60;;;;;;;;;;2078963;28;20723;-51
2021/08/09 02:45:02;;;;;;;4.22;3.83;;;;;;;;;;2073769;28;20251;-50
2021/08/09 02:46:04;;;;;;;5.53;3.45;;;;;;;;;;2068582;28;20231;-51
2021/08/09 02:47:07;;;;;;;4.70;3.50;;;;;;;;;;2077877;28;20207;-50
2021/08/09 02:48:07;;;;;;;3.88;3.58;;;;;;;;;;2080126;28;20172;-51
2021/08/09 02:49:11;;;;;;;5.03;3.58;;;;;;;;;;2068122;28;20227;-50
2021/08/09 02:50:15;;;;;;;7.78;3.75;;;;;;;;;;2071066;28;20161;-49
2021/08/09 02:51:17;;;;;;;7.57;3.85;;;;;;;;;;2067956;28;20173;-47
2021/08/09 02:52:19;;;;;;;4.15;3.63;;;;;;;;;;2064927;28;20181;-53
2021/08/09 02:53:21;;;;;;;5.50;4.03;;;;;;;;;;2062649;28;20597;-50
2021/08/09 02:54:21;;;;;;;7.22;4.13;;;;;;;;;;2065468;28;20199;-50
2021/08/09 02:55:22;;;;;;;5.10;3.78;;;;;;;;;;2063815;28;20196;-49
2021/08/09 02:56:24;;;;;;;5.57;3.85;;;;;;;;;;2072013;28;20908;-52
2021/08/09 02:57:26;;;;;;;6.18;3.78;;;;;;;;;;2069922;28;20682;-50
2021/08/09 02:58:26;;;;;;;3.88;3.58;;;;;;;;;;2070893;28;20172;-51
2021/08/09 02:59:27;;;;;;;6.28;3.75;;;;;;;;;;2067555;28;20681;-50
2021/08/09 03:00:27;;;;;;;4.97;3.92;;;;;;;;;;2066394;28;20265;-50
2021/08/09 03:01:30;;;;;;;4.35;3.95;;;;;;;;;;2070112;28;20264;-53
2021/08/09 03:02:34;;;;;;;4.47;3.80;;;;;;;;;;2068145;28;20664;-50
2021/08/09 03:03:36;;;;;;;4.22;3.67;;;;;;;;;;2062845;28;20257;-53
2021/08/09 03:04:36;;;;;;;4.40;4.03;;;;;;;;;;2070254;28;20786;-49
2021/08/09 03:05:39;;;;;;;4.30;3.90;;;;;;;;;;2067163;28;20174;-49
2021/08/09 03:06:39;;;;;;;3.78;3.53;;;;;;;;;;2089003;28;20180;-49
2021/08/09 03:07:41;;;;;;;5.57;4.05;;;;;;;;;;2072428;28;20162;-49
2021/08/09 03:08:41;;;;;;;3.90;3.60;;;;;;;;;;2072807;28;20223;-50
2021/08/09 03:09:42;;;;;;;5.53;4.07;;;;;;;;;;2071590;28;20245;-49
2021/08/09 03:10:42;;;;;;;4.30;3.90;;;;;;;;;;2078281;28;20259;-49
2021/08/09 03:11:42;;;;;;;5.13;3.90;;;;;;;;;;2074997;28;20903;-56
2021/08/09 03:12:44;;;;;;;4.35;3.78;;;;;;;;;;2073268;28;20180;-51
2021/08/09 03:13:45;;;;;;;5.38;3.95;;;;;;;;;;2072809;28;20176;-50
2021/08/09 03:14:50;;;;;;;6.38;4.20;;;;;;;;;;2077374;28;20161;-50
2021/08/09 03:15:51;;;;;;;7.18;4.03;;;;;;;;;;2081462;28;20204;-50
2021/08/09 03:16:52;;;;;;;4.88;3.95;;;;;;;;;;2080397;28;20176;-49
2021/08/09 03:17:53;;;;;;;4.70;4.30;;;;;;;;;;2078892;28;20203;-49
2021/08/09 03:18:53;;;;;;;6.75;4.25;;;;;;;;;;2080065;28;20200;-49
2021/08/09 03:19:54;;;;;;;5.50;3.88;;;;;;;;;;2080282;28;20247;-48
2021/08/09 03:20:55;;;;;;;5.60;4.20;;;;;;;;;;2074069;28;20164;-49
2021/08/09 03:21:56;;;;;;;4.32;3.90;;;;;;;;;;2071170;28;20173;-54
2021/08/09 03:22:58;;;;;;;4.80;4.40;;;;;;;;;;2074933;28;20173;-48
2021/08/09 03:23:58;;;;;;;3.70;3.38;;;;;;;;;;2080847;28;20199;-49
2021/08/09 03:24:58;;;;;;;7.38;4.45;;;;;;;;;;2066872;28;20193;-49
2021/08/09 03:25:59;;;;;;;4.80;3.90;;;;;;;;;;2072757;28;20276;-48
2021/08/09 03:26:59;;;;;;;4.22;3.75;;;;;;;;;;2064869;28;20438;-49
2021/08/09 03:28:00;;;;;;;5.88;4.35;;;;;;;;;;2072437;28;20181;-51
2021/08/09 03:29:00;;;;;;;6.55;3.67;;;;;;;;;;2074791;28;20777;-49
2021/08/09 03:30:00;;;;;;;4.10;3.80;;;;;;;;;;2078606;28;20180;-51
2021/08/09 03:31:03;;;;;;;6.97;4.22;;;;;;;;;;2066141;28;20608;-54
2021/08/09 03:32:04;;;;;;;4.43;3.80;;;;;;;;;;2070069;28;20180;-50
2021/08/09 03:33:04;;;;;;;5.47;4.45;;;;;;;;;;2060610;28;20176;-51
2021/08/09 03:34:06;;;;;;;7.10;4.13;;;;;;;;;;2067175;28;20209;-57
2021/08/09 03:35:07;;;;;;;4.40;3.60;;;;;;;;;;2069950;28;20188;-52
2021/08/09 03:36:07;;;;;;;4.35;3.90;;;;;;;;;;2072036;28;20164;-51
2021/08/09 03:37:09;;;;;;;5.05;4.03;;;;;;;;;;2069371;28;20178;-52
2021/08/09 03:38:11;;;;;;;5.38;4.00;;;;;;;;;;2067552;28;20183;-53
2021/08/09 03:39:12;;;;;;;7.78;3.75;;;;;;;;;;2068447;28;20198;-51
2021/08/09 03:40:13;;;;;;;5.45;3.88;;;;;;;;;;2067986;28;20169;-51
2021/08/09 03:41:13;;;;;;;6.72;3.92;;;;;;;;;;2076129;28;20177;-52
2021/08/09 03:42:13;;;;;;;4.88;3.75;;;;;;;;;;2072832;28;20172;-50
2021/08/09 03:43:14;;;;;;;4.00;3.60;;;;;;;;;;2067750;28;20173;-53
2021/08/09 03:44:14;;;;;;;5.88;4.07;;;;;;;;;;2067564;28;20264;-50
2021/08/09 03:45:15;;;;;;;4.38;3.97;;;;;;;;;;2076478;28;20173;-54
2021/08/09 03:46:15;;;;;;;6.00;3.97;;;;;;;;;;2072708;28;20227;-51
2021/08/09 03:47:16;;;;;;;5.85;3.80;;;;;;;;;;2079892;28;20302;-48
2021/08/09 03:48:16;;;;;;;6.25;4.13;;;;;;;;;;2074961;28;20202;-53
2021/08/09 03:49:16;;;;;;;4.43;4.03;;;;;;;;;;2074728;28;20713;-51
2021/08/09 03:50:17;;;;;;;5.68;3.78;;;;;;;;;;2076028;28;20777;-51
2021/08/09 03:51:18;;;;;;;6.63;4.47;;;;;;;;;;2076220;28;20200;-53
2021/08/09 03:52:19;;;;;;;6.65;3.92;;;;;;;;;;2078734;28;20254;-51
2021/08/09 03:53:19;;;;;;;5.93;4.05;;;;;;;;;;2086021;28;20187;-54
2021/08/09 03:54:19;;;;;;;5.35;3.55;;;;;;;;;;2087858;28;20241;-51
2021/08/09 03:55:20;;;;;;;9.00;4.72;;;;;;;;;;2076902;28;20734;-52
2021/08/09 03:56:21;;;;;;;6.03;4.32;;;;;;;;;;2069040;28;20177;-53
2021/08/09 03:57:23;;;;;;;4.82;3.80;;;;;;;;;;2069001;28;20160;-54
2021/08/09 03:58:23;;;;;;;4.60;4.10;;;;;;;;;;2059273;28;20166;-51
2021/08/09 03:59:24;;;;;;;5.82;4.00;;;;;;;;;;2056555;28;20213;-53
2021/08/09 04:00:24;;;;;;;7.05;4.03;;;;;;;;;;2071793;28;20213;-53
2021/08/09 04:01:26;;;;;;;5.53;3.92;;;;;;;;;;2072006;28;20192;-50
2021/08/09 04:02:30;;;;;;;7.38;4.32;;;;;;;;;;2078187;28;20177;-52
2021/08/09 04:03:30;;;;;;;5.82;4.47;;;;;;;;;;2074389;28;20184;-52
2021/08/09 04:04:31;;;;;;;3.95;3.65;;;;;;;;;;2078607;28;20173;-52
2021/08/09 04:05:31;;;;;;;5.40;3.63;;;;;;;;;;2090518;28;20176;-52
2021/08/09 04:06:32;;;;;;;5.63;4.15;;;;;;;;;;2079559;28;20196;-52
2021/08/09 04:07:33;;;;;;;8.40;4.20;;;;;;;;;;2083843;28;20646;-51
2021/08/09 04:08:33;;;;;;;4.32;3.88;;;;;;;;;;2066623;28;20277;-51
2021/08/09 04:09:33;;;;;;;7.63;4.43;;;;;;;;;;2072742;28;20199;-52
2021/08/09 04:10:34;;;;;;;4.88;4.43;;;;;;;;;;2071443;28;20712;-50
2021/08/09 04:11:34;;;;;;;5.40;4.40;;;;;;;;;;2067494;28;20624;-51
2021/08/09 04:12:35;;;;;;;4.75;3.80;;;;;;;;;;2066311;28;20182;-54
2021/08/09 04:13:35;;;;;;;4.80;4.20;;;;;;;;;;2071914;28;20239;-54
2021/08/09 04:14:36;;;;;;;5.63;3.83;;;;;;;;;;2064831;28;20247;-51
2021/08/09 04:15:36;;;;;;;7.65;4.53;;;;;;;;;;2064317;28;20173;-52
2021/08/09 04:16:38;;;;;;;4.40;3.80;;;;;;;;;;2078760;28;20688;-52
2021/08/09 04:17:39;;;;;;;6.15;4.57;;;;;;;;;;2083351;28;20176;-57
2021/08/09 04:18:40;;;;;;;4.20;3.80;;;;;;;;;;2082429;28;20301;-51
2021/08/09 04:19:40;;;;;;;5.03;4.00;;;;;;;;;;2073023;28;20168;-50
2021/08/09 04:20:41;;;;;;;4.10;3.80;;;;;;;;;;2075909;28;20231;-52
2021/08/09 04:21:43;;;;;;;7.38;4.57;;;;;;;;;;2066382;28;20165;-55
2021/08/09 04:22:43;;;;;;;5.72;4.35;;;;;;;;;;2074962;28;20227;-52
2021/08/09 04:23:46;;;;;;;6.72;4.32;;;;;;;;;;2075253;28;20196;-50
2021/08/09 04:24:46;;;;;;;6.30;4.30;;;;;;;;;;2075797;28;20161;-51
2021/08/09 04:25:47;;;;;;;4.30;4.00;;;;;;;;;;2078224;28;20173;-50
2021/08/09 04:26:48;;;;;;;4.50;4.05;;;;;;;;;;2083866;28;20244;-53
2021/08/09 04:27:48;;;;;;;5.30;4.72;;;;;;;;;;2075027;28;20169;-53
2021/08/09 04:28:49;;;;;;;6.95;4.13;;;;;;;;;;2074267;28;20234;-52
2021/08/09 04:29:50;;;;;;;6.13;3.72;;;;;;;;;;2074824;28;20169;-52
2021/08/09 04:30:50;;;;;;;6.43;4.68;;;;;;;;;;2078805;28;20168;-53
2021/08/09 04:31:51;;;;;;;4.57;4.18;;;;;;;;;;2074050;28;20181;-52
2021/08/09 04:32:51;;;;;;;6.68;4.35;;;;;;;;;;2069193;28;20177;-52
2021/08/09 04:33:52;;;;;;;7.68;4.63;;;;;;;;;;2057789;28;20182;-50
2021/08/09 04:34:52;;;;;;;4.55;4.10;;;;;;;;;;2057930;28;20265;-50
2021/08/09 04:35:52;;;;;;;5.07;4.05;;;;;;;;;;2057714;28;20249;-50
2021/08/09 04:36:53;;;;;;;5.47;3.70;;;;;;;;;;2057235;28;20198;-50
2021/08/09 04:37:53;;;;;;;5.25;4.53;;;;;;;;;;2070820;28;20219;-50
2021/08/09 04:38:54;;;;;;;5.47;4.32;;;;;;;;;;2073439;28;20192;-50
2021/08/09 04:39:54;;;;;;;6.20;4.18;;;;;;;;;;2073322;28;20706;-50
2021/08/09 04:40:54;;;;;;;5.10;4.10;;;;;;;;;;2073649;28;20252;-51
2021/08/09 04:41:54;;;;;;;4.68;4.13;;;;;;;;;;2077838;28;20172;-50
2021/08/09 04:42:55;;;;;;;5.35;4.53;;;;;;;;;;2080736;28;20254;-51
2021/08/09 04:43:56;;;;;;;7.22;4.53;;;;;;;;;;2065654;28;20181;-50
2021/08/09 04:44:56;;;;;;;5.18;4.13;;;;;;;;;;2075440;28;20322;-51
2021/08/09 04:45:58;;;;;;;4.40;3.92;;;;;;;;;;2082004;28;20259;-51
2021/08/09 04:47:00;;;;;;;4.25;3.85;;;;;;;;;;2074063;28;20890;-52
2021/08/09 04:48:01;;;;;;;8.13;4.47;;;;;;;;;;2077244;28;20227;-54
2021/08/09 04:49:03;;;;;;;7.38;4.65;;;;;;;;;;2067320;28;20259;-52
2021/08/09 04:50:03;;;;;;;5.32;3.85;;;;;;;;;;2066455;28;20251;-51
2021/08/09 04:51:04;;;;;;;6.18;3.78;;;;;;;;;;2065303;28;20181;-51
2021/08/09 04:52:04;;;;;;;5.88;4.13;;;;;;;;;;2073818;28;20177;-50
2021/08/09 04:53:08;;;;;;;7.15;4.10;;;;;;;;;;2073792;28;20176;-53
2021/08/09 04:54:08;;;;;;;4.63;3.88;;;;;;;;;;2072902;28;20212;-50
2021/08/09 04:55:09;;;;;;;6.78;3.63;;;;;;;;;;2079970;28;20663;-49
2021/08/09 04:56:09;;;;;;;4.60;3.90;;;;;;;;;;2072826;28;20177;-50
2021/08/09 04:57:11;;;;;;;6.28;3.95;;;;;;;;;;2069655;28;20169;-52
2021/08/09 04:58:12;;;;;;;5.75;4.13;;;;;;;;;;2071283;28;20165;-51
2021/08/09 04:59:12;;;;;;;5.65;3.78;;;;;;;;;;2080288;28;20240;-53
2021/08/09 05:00:14;;;;;;;5.93;4.55;;;;;;;;;;2069217;28;20656;-52
2021/08/09 05:01:15;;;;;;;7.68;3.90;;;;;;;;;;2076518;28;20164;-50
2021/08/09 05:02:15;;;;;;;7.43;4.28;;;;;;;;;;2078358;28;20245;-51
2021/08/09 05:03:16;;;;;;;8.30;4.22;;;;;;;;;;2072978;28;20232;-55
2021/08/09 05:04:16;;;;;;;4.93;3.58;;;;;;;;;;2067981;28;20253;-57
2021/08/09 05:05:16;;;;;;;5.75;3.70;;;;;;;;;;2072992;28;20176;-50
2021/08/09 05:06:18;;;;;;;5.07;3.30;;;;;;;;;;2081601;28;20195;-50
2021/08/09 05:07:19;;;;;;;6.38;4.40;;;;;;;;;;2069004;28;20169;-49
2021/08/09 05:08:20;;;;;;;4.60;3.80;;;;;;;;;;2063892;28;20323;-52
2021/08/09 05:09:21;;;;;;;6.82;4.22;;;;;;;;;;2074279;28;20208;-53
2021/08/09 05:10:22;;;;;;;5.88;3.58;;;;;;;;;;2075395;28;20326;-51
2021/08/09 05:11:22;;;;;;;3.42;3.13;;;;;;;;;;2068592;28;20229;-52
2021/08/09 05:12:30;;;;;;;5.72;3.83;;;;;;;;;;2072284;28;20263;-50
2021/08/09 05:13:32;;;;;;;6.25;3.97;;;;;;;;;;2074062;28;20260;-53
2021/08/09 05:14:33;;;;;;;4.93;3.53;;;;;;;;;;2078406;28;20211;-54
2021/08/09 05:15:35;;;;;;;5.75;4.05;;;;;;;;;;2074187;28;20848;-50
2021/08/09 05:16:37;;;;;;;5.50;3.55;;;;;;;;;;2054258;28;20182;-51
2021/08/09 05:17:41;;;;;;;5.18;3.38;;;;;;;;;;2064949;28;20266;-52
2021/08/09 05:18:43;;;;;;;6.95;3.50;;;;;;;;;;2056862;28;20201;-50
2021/08/09 05:19:44;;;;;;;7.75;3.40;;;;;;;;;;2062196;28;20245;-52
2021/08/09 05:20:46;;;;;;;7.47;3.70;;;;;;;;;;2066567;28;20554;-50
2021/08/09 05:21:47;;;;;;;4.50;3.50;;;;;;;;;;2063041;28;20209;-51
2021/08/09 05:22:48;;;;;;;9.35;3.60;;;;;;;;;;2067133;28;20178;-50
2021/08/09 05:23:48;;;;;;;4.70;3.33;;;;;;;;;;2071464;28;20256;-50
2021/08/09 05:24:48;;;;;;;5.57;3.95;;;;;;;;;;2063356;28;20170;-53
2021/08/09 05:25:49;;;;;;;5.13;3.30;;;;;;;;;;2052403;28;20707;-52
2021/08/09 05:26:49;;;;;;;5.40;3.50;;;;;;;;;;2064828;28;20590;-52
2021/08/09 05:27:49;;;;;;;5.53;3.40;;;;;;;;;;2067995;28;20174;-51
2021/08/09 05:28:50;;;;;;;6.75;3.47;;;;;;;;;;2068336;28;20185;-50
2021/08/09 05:29:50;;;;;;;3.80;3.50;;;;;;;;;;2075688;28;20204;-51
2021/08/09 05:30:51;;;;;;;4.88;3.20;;;;;;;;;;2069139;28;20197;-53
2021/08/09 05:31:51;;;;;;;4.65;3.47;;;;;;;;;;2076351;28;20165;-48
2021/08/09 05:32:51;;;;;;;6.00;3.47;;;;;;;;;;2077744;28;20630;-52
2021/08/09 05:33:52;;;;;;;4.13;3.30;;;;;;;;;;2083019;28;20171;-54
2021/08/09 05:34:52;;;;;;;5.65;3.90;;;;;;;;;;2080618;28;20187;-50
2021/08/09 05:35:52;;;;;;;5.22;3.45;;;;;;;;;;2076403;28;20234;-46
2021/08/09 05:36:53;;;;;;;5.22;3.15;;;;;;;;;;2074008;28;20161;-49
2021/08/09 05:37:53;;;;;;;6.50;3.40;;;;;;;;;;2082836;28;20210;-47
2021/08/09 05:38:54;;;;;;;5.00;3.78;;;;;;;;;;2076049;28;20275;-50
2021/08/09 05:39:55;;;;;;;3.75;3.20;;;;;;;;;;2076349;28;20243;-48
2021/08/09 05:40:56;;;;;;;7.40;3.67;;;;;;;;;;2067904;28;20545;-46
2021/08/09 05:41:57;;;;;;;6.45;3.38;;;;;;;;;;2066722;28;20221;-51
2021/08/09 05:42:58;;;;;;;5.47;3.63;;;;;;;;;;2070975;28;20173;-50
2021/08/09 05:43:59;;;;;;;6.38;3.47;;;;;;;;;;2069509;28;20829;-52
2021/08/09 05:44:59;;;;;;;6.53;4.25;;;;;;;;;;2050812;28;20190;-53
2021/08/09 05:46:01;;;;;;;12.23;4.57;;;;;;;;;;2064001;28;20181;-49
2021/08/09 05:47:03;;;;;;;6.18;3.90;;;;;;;;;;2068817;28;20177;-51
2021/08/09 05:48:04;;;;;;;6.45;4.28;;;;;;;;;;2080772;28;20298;-50
2021/08/09 05:49:06;;;;;;;7.07;4.40;;;;;;;;;;2076658;28;20684;-52
2021/08/09 05:50:07;;;;;;;6.43;4.22;;;;;;;;;;2075100;28;20173;-51
2021/08/09 05:51:10;;;;;;;6.15;3.95;;;;;;;;;;2073821;28;20181;-52
2021/08/09 05:52:25;;;;;;;7.32;4.13;;;;;;;;;;2070285;28;20166;-51
2021/08/09 05:53:32;;;;;;;12.05;4.30;;;;;;;;;;2071444;28;20174;-50
2021/08/09 05:54:32;;;;;;;16.83;4.82;;;;;;;;;;2060993;28;20293;-56
2021/08/09 05:55:33;;;;;;;7.78;4.10;;;;;;;;;;2066295;28;21589;-56
2021/08/09 05:56:36;;;;;;;6.82;4.25;;;;;;;;;;2065495;28;20174;-52
2021/08/09 05:57:38;;;;;;;6.93;3.83;;;;;;;;;;2072846;28;20562;-58
2021/08/09 05:58:39;;;;;;;10.00;4.32;;;;;;;;;;2076337;28;20196;-55
2021/08/09 05:59:40;;;;;;;9.23;4.40;;;;;;;;;;2071143;28;20267;-55
2021/08/09 06:00:40;;;;;;;5.93;3.85;;;;;;;;;;2068534;28;20185;-56
2021/08/09 06:01:45;;;;;;;8.82;4.20;;;;;;;;;;2076410;28;20193;-51
2021/08/09 06:02:47;;;;;;;8.45;4.07;;;;;;;;;;2067638;28;20216;-50
2021/08/09 06:03:58;;;;;;;7.50;4.07;;;;;;;;;;2065889;28;20584;-49
2021/08/09 06:04:58;;;;;;;5.90;4.03;;;;;;;;;;2069621;28;20177;-49
2021/08/09 06:05:59;;;;;;;8.95;3.67;;;;;;;;;;2064270;28;20638;-48
2021/08/09 06:07:09;;;;;;;9.40;4.28;;;;;;;;;;2065409;28;20222;-51
2021/08/09 06:08:10;;;;;;;6.05;4.30;;;;;;;;;;2064578;28;20261;-47
2021/08/09 06:09:10;;;;;;;6.05;3.72;;;;;;;;;;2070842;28;20666;-50
2021/08/09 06:10:11;;;;;;;7.57;4.00;;;;;;;;;;2070726;28;20957;-47